createdAt,value
2018-08-12T00:00:25.172Z,16.17
2018-08-12T00:02:55.827Z,16.07
2018-08-12T00:05:25.444Z,16.02
2018-08-12T00:07:55.606Z,16.02
2018-08-12T00:10:26.323Z,16.01
2018-08-12T00:12:56.287Z,15.92
2018-08-12T00:15:26.251Z,15.83
2018-08-12T00:17:55.806Z,15.76
2018-08-12T00:20:25.431Z,15.74
2018-08-12T00:22:54.963Z,15.73
2018-08-12T00:25:24.947Z,15.74
2018-08-12T00:27:54.539Z,15.64
2018-08-12T00:30:24.127Z,15.62
2018-08-12T00:32:53.736Z,15.62
2018-08-12T00:35:23.651Z,15.63
2018-08-12T00:37:53.295Z,15.64
2018-08-12T00:40:22.870Z,15.61
2018-08-12T00:42:52.755Z,15.60
2018-08-12T00:45:22.327Z,15.59
2018-08-12T00:47:51.903Z,15.57
2018-08-12T00:50:21.827Z,15.55
2018-08-12T00:52:51.724Z,15.52
2018-08-12T00:55:21.339Z,15.49
2018-08-12T00:57:51.242Z,15.50
2018-08-12T01:00:22.256Z,15.49
2018-08-12T01:02:52.171Z,15.46
2018-08-12T01:05:21.750Z,15.42
2018-08-12T01:07:51.659Z,15.40
2018-08-12T01:10:21.337Z,15.34
2018-08-12T01:12:50.922Z,15.31
2018-08-12T01:15:21.614Z,15.30
2018-08-12T01:17:51.185Z,15.22
2018-08-12T01:20:23.191Z,15.18
2018-08-12T01:22:53.127Z,15.13
2018-08-12T01:25:23.219Z,15.07
2018-08-12T01:27:52.780Z,15.05
2018-08-12T01:30:23.075Z,15.04
2018-08-12T01:32:52.731Z,14.99
2018-08-12T01:35:22.271Z,15.00
2018-08-12T01:37:52.187Z,14.99
2018-08-12T01:40:21.759Z,14.97
2018-08-12T01:42:51.302Z,14.92
2018-08-12T01:45:21.552Z,14.87
2018-08-12T01:47:51.157Z,14.87
2018-08-12T01:50:21.171Z,14.88
2018-08-12T01:52:51.091Z,14.86
2018-08-12T01:55:21.004Z,14.80
2018-08-12T01:57:50.540Z,14.76
2018-08-12T02:00:21.481Z,14.71
2018-08-12T02:02:51.462Z,14.73
2018-08-12T02:05:21.435Z,14.71
2018-08-12T02:07:51.391Z,14.65
2018-08-12T02:10:20.954Z,14.61
2018-08-12T02:12:50.915Z,14.61
2018-08-12T02:15:20.443Z,14.61
2018-08-12T02:17:50.017Z,14.56
2018-08-12T02:20:19.564Z,14.53
2018-08-12T02:22:49.158Z,14.52
2018-08-12T02:25:18.715Z,14.49
2018-08-12T02:27:48.649Z,14.47
2018-08-12T02:30:18.223Z,14.43
2018-08-12T02:32:48.108Z,14.44
2018-08-12T02:35:18.011Z,14.39
2018-08-12T02:37:47.559Z,14.34
2018-08-12T02:40:17.171Z,14.23
2018-08-12T02:42:46.726Z,14.16
2018-08-12T02:45:17.000Z,14.08
2018-08-12T02:47:46.543Z,14.08
2018-08-12T02:50:16.394Z,14.13
2018-08-12T02:52:46.355Z,14.16
2018-08-12T02:55:16.304Z,14.12
2018-08-12T02:57:46.176Z,14.13
2018-08-12T03:00:15.768Z,14.12
2018-08-12T03:02:45.686Z,14.13
2018-08-12T03:05:15.593Z,14.10
2018-08-12T03:07:45.154Z,14.03
2018-08-12T03:10:15.459Z,13.99
2018-08-12T03:12:45.037Z,13.92
2018-08-12T03:15:14.590Z,13.87
2018-08-12T03:17:44.160Z,13.87
2018-08-12T03:20:13.985Z,13.84
2018-08-12T03:22:44.054Z,13.86
2018-08-12T03:25:13.875Z,13.83
2018-08-12T03:27:43.785Z,13.86
2018-08-12T03:30:13.667Z,13.76
2018-08-12T03:32:43.375Z,13.70
2018-08-12T03:35:13.627Z,13.63
2018-08-12T03:37:43.118Z,13.57
2018-08-12T03:40:13.991Z,13.58
2018-08-12T03:42:44.323Z,13.60
2018-08-12T03:45:14.178Z,13.64
2018-08-12T03:47:44.059Z,13.63
2018-08-12T03:50:13.570Z,13.62
2018-08-12T03:52:43.505Z,13.59
2018-08-12T03:55:13.051Z,13.58
2018-08-12T03:57:42.642Z,13.57
2018-08-12T04:00:17.458Z,13.56
2018-08-12T04:02:48.323Z,13.55
2018-08-12T04:05:18.733Z,13.54
2018-08-12T04:07:48.299Z,13.52
2018-08-12T04:10:17.832Z,13.50
2018-08-12T04:12:47.339Z,13.46
2018-08-12T04:15:16.852Z,13.46
2018-08-12T04:17:48.591Z,13.43
2018-08-12T04:20:18.274Z,13.44
2018-08-12T04:22:48.086Z,13.41
2018-08-12T04:25:17.714Z,13.39
2018-08-12T04:27:48.036Z,13.37
2018-08-12T04:30:18.070Z,13.36
2018-08-12T04:32:47.730Z,13.39
2018-08-12T04:35:17.466Z,13.39
2018-08-12T04:37:47.039Z,13.39
2018-08-12T04:40:16.595Z,13.41
2018-08-12T04:42:46.510Z,13.44
2018-08-12T04:45:16.387Z,13.45
2018-08-12T04:47:45.955Z,13.45
2018-08-12T04:50:15.526Z,13.50
2018-08-12T04:52:45.146Z,13.58
2018-08-12T04:55:15.058Z,13.61
2018-08-12T04:57:44.618Z,13.59
2018-08-12T05:00:14.832Z,13.62
2018-08-12T05:02:44.775Z,13.63
2018-08-12T05:05:14.379Z,13.64
2018-08-12T05:07:43.984Z,13.72
2018-08-12T05:10:14.120Z,13.77
2018-08-12T05:12:43.669Z,13.86
2018-08-12T05:15:13.932Z,13.92
2018-08-12T05:17:43.519Z,13.95
2018-08-12T05:20:13.387Z,14.03
2018-08-12T05:22:42.940Z,14.12
2018-08-12T05:25:12.833Z,14.20
2018-08-12T05:27:42.439Z,14.37
2018-08-12T05:30:12.338Z,14.74
2018-08-12T05:32:42.666Z,15.25
2018-08-12T05:35:13.710Z,15.74
2018-08-12T05:37:43.868Z,16.16
2018-08-12T05:40:13.850Z,16.54
2018-08-12T05:42:44.019Z,17.01
2018-08-12T05:45:13.590Z,17.52
2018-08-12T05:47:43.777Z,18.01
2018-08-12T05:50:13.568Z,18.47
2018-08-12T05:52:43.502Z,18.91
2018-08-12T05:55:13.118Z,19.25
2018-08-12T05:57:43.052Z,19.56
2018-08-12T06:00:15.186Z,19.83
2018-08-12T06:02:46.120Z,20.13
2018-08-12T06:05:15.835Z,20.39
2018-08-12T06:07:45.824Z,20.65
2018-08-12T06:10:15.432Z,20.89
2018-08-12T06:12:45.623Z,21.07
2018-08-12T06:15:17.751Z,21.32
2018-08-12T06:17:47.365Z,21.49
2018-08-12T06:20:17.255Z,21.73
2018-08-12T06:22:47.143Z,21.92
2018-08-12T06:25:16.763Z,22.12
2018-08-12T06:27:46.302Z,22.32
2018-08-12T06:30:16.381Z,22.50
2018-08-12T06:32:46.291Z,22.68
2018-08-12T06:35:15.912Z,22.83
2018-08-12T06:37:45.471Z,23.00
2018-08-12T06:40:15.744Z,23.18
2018-08-12T06:42:46.201Z,23.36
2018-08-12T06:45:18.072Z,23.53
2018-08-12T06:47:48.599Z,23.65
2018-08-12T06:50:18.382Z,23.91
2018-08-12T06:52:48.242Z,24.06
2018-08-12T06:55:18.196Z,24.29
2018-08-12T06:57:48.129Z,24.34
2018-08-12T07:00:19.986Z,24.43
2018-08-12T07:02:49.735Z,24.61
2018-08-12T07:05:19.318Z,24.72
2018-08-12T07:07:49.754Z,24.79
2018-08-12T07:10:19.709Z,24.71
2018-08-12T07:12:49.301Z,24.92
2018-08-12T07:15:19.454Z,25.16
2018-08-12T07:17:49.659Z,25.13
2018-08-12T07:20:19.539Z,25.36
2018-08-12T07:22:49.094Z,25.53
2018-08-12T07:25:18.692Z,25.66
2018-08-12T07:27:48.346Z,25.81
2018-08-12T07:30:18.415Z,25.95
2018-08-12T07:32:48.533Z,26.11
2018-08-12T07:35:18.376Z,26.25
2018-08-12T07:37:47.926Z,26.30
2018-08-12T07:40:20.138Z,26.32
2018-08-12T07:42:50.903Z,26.38
2018-08-12T07:45:20.580Z,26.52
2018-08-12T07:47:50.298Z,26.77
2018-08-12T07:50:20.159Z,26.91
2018-08-12T07:52:49.813Z,26.89
2018-08-12T07:55:20.011Z,27.06
2018-08-12T07:57:49.603Z,27.27
2018-08-12T08:00:20.282Z,27.46
2018-08-12T08:02:50.254Z,27.56
2018-08-12T08:05:19.854Z,27.66
2018-08-12T08:07:49.487Z,27.72
2018-08-12T08:10:19.814Z,27.60
2018-08-12T08:12:49.615Z,27.73
2018-08-12T08:15:21.514Z,27.73
2018-08-12T08:17:51.259Z,27.96
2018-08-12T08:20:20.807Z,28.16
2018-08-12T08:22:50.419Z,28.27
2018-08-12T08:25:20.379Z,28.40
2018-08-12T08:27:50.211Z,28.45
2018-08-12T08:30:19.767Z,28.52
2018-08-12T08:32:49.746Z,28.51
2018-08-12T08:35:19.488Z,28.70
2018-08-12T08:37:49.372Z,28.77
2018-08-12T08:40:18.971Z,28.76
2018-08-12T08:42:49.135Z,29.00
2018-08-12T08:45:21.011Z,29.20
2018-08-12T08:47:53.878Z,29.22
2018-08-12T08:50:24.143Z,29.30
2018-08-12T08:52:53.731Z,29.40
2018-08-12T08:55:23.404Z,29.44
2018-08-12T08:57:53.125Z,29.48
2018-08-12T09:00:22.784Z,29.56
2018-08-12T09:02:53.877Z,29.71
2018-08-12T09:05:23.623Z,29.61
2018-08-12T09:07:53.630Z,29.58
2018-08-12T09:10:23.767Z,29.46
2018-08-12T09:12:53.374Z,29.33
2018-08-12T09:15:22.982Z,29.07
2018-08-12T09:17:53.061Z,29.33
2018-08-12T09:20:23.251Z,29.64
2018-08-12T09:22:53.088Z,29.81
2018-08-12T09:25:23.179Z,29.96
2018-08-12T09:27:52.768Z,29.96
2018-08-12T09:30:23.152Z,30.17
2018-08-12T09:32:52.918Z,30.23
2018-08-12T09:35:22.554Z,30.24
2018-08-12T09:37:52.212Z,30.25
2018-08-12T09:40:22.095Z,30.33
2018-08-12T09:42:52.054Z,30.45
2018-08-12T09:45:22.287Z,30.47
2018-08-12T09:47:52.389Z,30.30
2018-08-12T09:50:22.050Z,30.28
2018-08-12T09:52:53.041Z,30.38
2018-08-12T09:55:22.951Z,30.48
2018-08-12T09:57:52.935Z,30.53
2018-08-12T10:00:28.406Z,30.54
2018-08-12T10:02:58.481Z,30.58
2018-08-12T10:05:28.466Z,30.59
2018-08-12T10:07:58.159Z,30.48
2018-08-12T10:10:27.767Z,30.47
2018-08-12T10:12:57.723Z,30.55
2018-08-12T10:15:27.374Z,30.55
2018-08-12T10:17:59.347Z,30.52
2018-08-12T10:20:29.057Z,30.60
2018-08-12T10:22:59.279Z,30.61
2018-08-12T10:25:28.926Z,30.58
2018-08-12T10:27:58.882Z,30.63
2018-08-12T10:30:28.766Z,30.68
2018-08-12T10:32:59.403Z,30.58
2018-08-12T10:35:28.999Z,30.53
2018-08-12T10:37:58.873Z,30.55
2018-08-12T10:40:29.055Z,30.62
2018-08-12T10:43:06.554Z,30.60
2018-08-12T10:45:36.486Z,30.49
2018-08-12T10:48:14.431Z,30.57
2018-08-12T10:50:44.772Z,30.00
2018-08-12T10:53:15.502Z,30.00
2018-08-12T10:55:45.234Z,30.17
2018-08-12T10:58:15.359Z,30.19
2018-08-12T11:00:45.323Z,30.30
2018-08-12T11:03:15.053Z,30.28
2018-08-12T11:05:44.711Z,30.29
2018-08-12T11:08:14.331Z,30.28
2018-08-12T11:10:44.014Z,30.09
2018-08-12T11:13:14.423Z,30.13
2018-08-12T11:15:44.282Z,30.25
2018-08-12T11:18:14.132Z,30.16
2018-08-12T11:20:44.100Z,30.18
2018-08-12T11:23:13.679Z,30.04
2018-08-12T11:25:44.055Z,30.01
2018-08-12T11:28:13.947Z,30.08
2018-08-12T11:30:43.575Z,30.15
2018-08-12T11:33:13.803Z,30.25
2018-08-12T11:35:43.364Z,30.29
2018-08-12T11:38:12.950Z,30.36
2018-08-12T11:40:42.991Z,30.30
2018-08-12T11:43:13.132Z,30.26
2018-08-12T11:45:42.774Z,30.24
2018-08-12T11:48:12.823Z,30.31
2018-08-12T11:50:43.339Z,30.30
2018-08-12T11:53:14.411Z,30.25
2018-08-12T11:55:44.262Z,30.14
2018-08-12T11:58:13.931Z,30.16
2018-08-12T12:00:43.790Z,30.20
2018-08-12T12:03:13.648Z,30.13
2018-08-12T12:05:43.342Z,30.18
2018-08-12T12:08:13.378Z,30.19
2018-08-12T12:10:43.146Z,30.15
2018-08-12T12:13:13.303Z,30.17
2018-08-12T12:15:43.426Z,30.17
2018-08-12T12:18:13.456Z,30.20
2018-08-12T12:20:43.430Z,30.26
2018-08-12T12:23:13.449Z,30.31
2018-08-12T12:25:43.696Z,30.28
2018-08-12T12:28:13.509Z,30.24
2018-08-12T12:30:43.263Z,30.27
2018-08-12T12:33:13.495Z,30.29
2018-08-12T12:35:43.230Z,30.30
2018-08-12T12:38:12.958Z,30.31
2018-08-12T12:40:42.788Z,30.29
2018-08-12T12:43:13.184Z,30.26
2018-08-12T12:45:42.912Z,30.23
2018-08-12T12:48:12.719Z,30.32
2018-08-12T12:50:42.835Z,30.38
2018-08-12T12:53:16.020Z,30.38
2018-08-12T12:55:45.767Z,30.29
2018-08-12T12:58:15.706Z,30.22
2018-08-12T13:00:45.768Z,30.09
2018-08-12T13:03:15.494Z,29.96
2018-08-12T13:05:58.899Z,29.89
2018-08-12T13:08:28.683Z,29.70
2018-08-12T13:10:58.590Z,29.65
2018-08-12T13:13:28.243Z,29.74
2018-08-12T13:15:57.845Z,29.84
2018-08-12T13:18:27.463Z,29.93
2018-08-12T13:20:57.270Z,29.93
2018-08-12T13:23:26.987Z,29.89
2018-08-12T13:25:56.940Z,29.86
2018-08-12T13:28:27.546Z,29.91
2018-08-12T13:30:57.538Z,29.88
2018-08-12T13:33:27.345Z,29.85
2018-08-12T13:35:57.354Z,29.88
2018-08-12T13:38:26.964Z,29.75
2018-08-12T13:40:56.715Z,29.62
2018-08-12T13:43:26.443Z,29.52
2018-08-12T13:46:02.571Z,29.51
2018-08-12T13:48:32.469Z,29.63
2018-08-12T13:51:02.287Z,29.74
2018-08-12T13:53:32.736Z,29.79
2018-08-12T13:56:02.975Z,29.87
2018-08-12T13:58:32.614Z,29.93
2018-08-12T14:01:02.380Z,29.97
2018-08-12T14:03:32.158Z,29.95
2018-08-12T14:06:01.815Z,29.98
2018-08-12T14:08:31.613Z,30.08
2018-08-12T14:11:01.599Z,30.17
2018-08-12T14:13:31.458Z,30.19
2018-08-12T14:16:01.599Z,30.20
2018-08-12T14:18:32.446Z,30.29
2018-08-12T14:21:02.617Z,30.35
2018-08-12T14:23:32.463Z,30.35
2018-08-12T14:26:02.078Z,30.35
2018-08-12T14:28:31.775Z,30.32
2018-08-12T14:31:01.581Z,30.35
2018-08-12T14:33:33.151Z,30.36
2018-08-12T14:36:04.302Z,30.34
2018-08-12T14:38:38.922Z,30.35
2018-08-12T14:41:09.144Z,30.29
2018-08-12T14:43:38.740Z,30.25
2018-08-12T14:46:09.179Z,30.30
2018-08-12T14:48:39.061Z,30.34
2018-08-12T14:51:09.170Z,30.25
2018-08-12T14:53:39.837Z,30.21
2018-08-12T14:56:09.845Z,30.24
2018-08-12T14:58:39.676Z,30.29
2018-08-12T15:01:09.815Z,30.34
2018-08-12T15:03:39.498Z,30.41
2018-08-12T15:06:09.452Z,30.38
2018-08-12T15:08:39.027Z,30.34
2018-08-12T15:11:08.859Z,30.32
2018-08-12T15:13:38.807Z,30.31
2018-08-12T15:16:09.162Z,30.32
2018-08-12T15:18:39.580Z,30.33
2018-08-12T15:21:09.653Z,30.35
2018-08-12T15:23:39.431Z,30.38
2018-08-12T15:26:09.380Z,30.40
2018-08-12T15:28:39.334Z,30.39
2018-08-12T15:31:09.572Z,30.41
2018-08-12T15:33:39.215Z,30.39
2018-08-12T15:36:12.188Z,30.40
2018-08-12T15:38:41.862Z,30.39
2018-08-12T15:41:12.027Z,30.41
2018-08-12T15:43:41.986Z,30.38
2018-08-12T15:46:11.835Z,30.34
2018-08-12T15:48:41.675Z,30.32
2018-08-12T15:51:11.606Z,30.32
2018-08-12T15:53:41.856Z,30.31
2018-08-12T15:56:11.810Z,30.30
2018-08-12T15:58:41.758Z,30.27
2018-08-12T16:01:11.525Z,30.23
2018-08-12T16:03:41.340Z,30.21
2018-08-12T16:06:11.324Z,30.20
2018-08-12T16:08:41.463Z,30.20
2018-08-12T16:11:11.047Z,30.19
2018-08-12T16:13:40.863Z,30.20
2018-08-12T16:16:11.436Z,30.20
2018-08-12T16:18:41.122Z,30.21
2018-08-12T16:21:10.832Z,30.21
2018-08-12T16:23:42.747Z,30.17
2018-08-12T16:26:13.078Z,30.15
2018-08-12T16:28:42.954Z,30.09
2018-08-12T16:31:12.970Z,30.07
2018-08-12T16:33:42.851Z,30.10
2018-08-12T16:36:12.611Z,30.09
2018-08-12T16:38:42.387Z,30.11
2018-08-12T16:41:12.051Z,30.10
2018-08-12T16:43:42.119Z,30.10
2018-08-12T16:46:12.746Z,30.07
2018-08-12T16:48:43.211Z,30.04
2018-08-12T16:51:13.591Z,30.02
2018-08-12T16:53:43.301Z,30.01
2018-08-12T16:56:13.147Z,29.96
2018-08-12T16:58:42.979Z,29.93
2018-08-12T17:01:13.026Z,29.91
2018-08-12T17:03:43.280Z,29.89
2018-08-12T17:06:13.111Z,29.85
2018-08-12T17:08:42.879Z,29.86
2018-08-12T17:11:12.912Z,29.86
2018-08-12T17:13:42.799Z,29.83
2018-08-12T17:16:12.624Z,29.77
2018-08-12T17:18:42.232Z,29.76
2018-08-12T17:21:12.263Z,29.73
2018-08-12T17:23:42.308Z,29.68
2018-08-12T17:26:12.349Z,29.64
2018-08-12T17:28:42.379Z,29.60
2018-08-12T17:31:11.994Z,29.56
2018-08-12T17:33:42.260Z,29.54
2018-08-12T17:36:11.998Z,29.50
2018-08-12T17:38:41.968Z,29.45
2018-08-12T17:41:11.903Z,29.38
2018-08-12T17:43:41.655Z,29.35
2018-08-12T17:46:11.682Z,29.31
2018-08-12T17:48:41.351Z,29.25
2018-08-12T17:51:11.746Z,29.19
2018-08-12T17:53:41.510Z,29.15
2018-08-12T17:56:11.445Z,29.07
2018-08-12T17:58:41.215Z,28.99
2018-08-12T18:01:10.865Z,28.90
2018-08-12T18:03:40.916Z,28.82
2018-08-12T18:06:10.707Z,28.76
2018-08-12T18:08:40.427Z,28.68
2018-08-12T18:11:10.514Z,28.61
2018-08-12T18:13:40.603Z,28.54
2018-08-12T18:16:10.896Z,28.46
2018-08-12T18:18:42.917Z,28.37
2018-08-12T18:21:12.655Z,28.27
2018-08-12T18:23:42.480Z,28.16
2018-08-12T18:26:12.635Z,28.06
2018-08-12T18:28:42.372Z,27.96
2018-08-12T18:31:11.999Z,27.88
2018-08-12T18:33:41.689Z,27.79
2018-08-12T18:36:11.599Z,27.68
2018-08-12T18:38:41.851Z,27.54
2018-08-12T18:41:11.463Z,27.45
2018-08-12T18:43:41.090Z,27.33
2018-08-12T18:46:10.654Z,27.17
2018-08-12T18:48:40.258Z,27.04
2018-08-12T18:51:09.806Z,26.91
2018-08-12T18:53:39.783Z,26.76
2018-08-12T18:56:09.732Z,26.67
2018-08-12T18:58:39.767Z,26.55
2018-08-12T19:01:09.363Z,26.43
2018-08-12T19:03:39.208Z,26.28
2018-08-12T19:06:08.803Z,26.13
2018-08-12T19:08:38.368Z,25.98
2018-08-12T19:11:08.366Z,25.82
2018-08-12T19:13:38.370Z,25.70
2018-08-12T19:16:07.991Z,25.58
2018-08-12T19:18:37.653Z,25.49
2018-08-12T19:21:07.413Z,25.39
2018-08-12T19:23:36.986Z,25.32
2018-08-12T19:26:06.715Z,25.25
2018-08-12T19:28:36.507Z,25.19
2018-08-12T19:31:06.134Z,25.13
2018-08-12T19:33:35.779Z,25.06
2018-08-12T19:36:05.533Z,24.96
2018-08-12T19:38:35.588Z,24.85
2018-08-12T19:41:05.320Z,24.79
2018-08-12T19:43:34.906Z,24.72
2018-08-12T19:46:04.480Z,24.66
2018-08-12T19:48:34.456Z,24.58
2018-08-12T19:51:04.051Z,24.49
2018-08-12T19:53:34.051Z,24.44
2018-08-12T19:56:03.782Z,24.44
2018-08-12T19:58:33.594Z,24.39
2018-08-12T20:01:03.227Z,24.26
2018-08-12T20:03:32.995Z,24.18
2018-08-12T20:06:02.896Z,24.09
2018-08-12T20:08:32.565Z,23.98
2018-08-12T20:11:02.137Z,23.88
2018-08-12T20:13:31.717Z,23.82
2018-08-12T20:16:01.258Z,23.76
2018-08-12T20:18:31.010Z,23.71
2018-08-12T20:21:00.699Z,23.60
2018-08-12T20:23:30.962Z,23.52
2018-08-12T20:26:00.542Z,23.32
2018-08-12T20:28:30.119Z,23.28
2018-08-12T20:31:00.402Z,23.16
2018-08-12T20:33:30.638Z,23.04
2018-08-12T20:36:00.927Z,22.87
2018-08-12T20:38:30.738Z,22.81
2018-08-12T20:41:00.412Z,22.72
2018-08-12T20:43:30.364Z,22.61
2018-08-12T20:45:59.970Z,22.53
2018-08-12T20:48:29.534Z,22.39
2018-08-12T20:50:59.595Z,22.35
2018-08-12T20:53:29.526Z,22.28
2018-08-12T20:55:59.467Z,22.18
2018-08-12T20:58:29.064Z,22.11
2018-08-12T21:00:58.966Z,22.02
2018-08-12T21:03:28.952Z,21.97
2018-08-12T21:05:58.506Z,21.92
2018-08-12T21:08:28.096Z,21.88
2018-08-12T21:10:58.051Z,21.81
2018-08-12T21:13:27.639Z,21.78
2018-08-12T21:15:57.319Z,21.72
2018-08-12T21:18:26.942Z,21.68
2018-08-12T21:20:56.756Z,21.62
2018-08-12T21:23:26.449Z,21.56
2018-08-12T21:25:56.199Z,21.49
2018-08-12T21:28:25.843Z,21.42
2018-08-12T21:30:55.577Z,21.37
2018-08-12T21:33:25.268Z,21.34
2018-08-12T21:35:55.089Z,21.32
2018-08-12T21:38:24.995Z,21.29
2018-08-12T21:40:54.625Z,21.24
2018-08-12T21:43:24.539Z,21.24
2018-08-12T21:45:54.116Z,21.17
2018-08-12T21:48:23.686Z,21.13
2018-08-12T21:50:53.303Z,21.07
2018-08-12T21:53:22.946Z,21.04
2018-08-12T21:55:52.526Z,21.00
2018-08-12T21:58:22.102Z,20.98
2018-08-12T22:00:54.043Z,20.96
2018-08-12T22:03:23.615Z,20.91
2018-08-12T22:05:53.608Z,20.84
2018-08-12T22:08:23.311Z,20.81
2018-08-12T22:10:53.224Z,20.80
2018-08-12T22:13:22.831Z,20.69
2018-08-12T22:15:52.818Z,20.60
2018-08-12T22:18:22.443Z,20.57
2018-08-12T22:20:51.979Z,20.56
2018-08-12T22:23:21.879Z,20.55
2018-08-12T22:25:51.462Z,20.53
2018-08-12T22:28:21.408Z,20.50
2018-08-12T22:30:51.031Z,20.47
2018-08-12T22:33:20.593Z,20.45
2018-08-12T22:35:50.171Z,20.38
2018-08-12T22:38:20.083Z,20.34
2018-08-12T22:40:50.016Z,20.30
2018-08-12T22:43:20.160Z,20.26
2018-08-12T22:45:49.682Z,20.19
2018-08-12T22:48:19.259Z,20.14
2018-08-12T22:50:48.867Z,20.11
2018-08-12T22:53:18.442Z,20.07
2018-08-12T22:55:48.060Z,20.06
2018-08-12T22:58:17.792Z,20.01
2018-08-12T23:00:47.436Z,19.98
2018-08-12T23:03:17.076Z,19.96
2018-08-12T23:05:46.628Z,19.90
2018-08-12T23:08:16.222Z,19.85
2018-08-12T23:10:45.838Z,19.83
2018-08-12T23:13:15.412Z,19.77
2018-08-12T23:16:27.706Z,19.74
2018-08-12T23:18:57.560Z,19.65
2018-08-12T23:21:27.508Z,19.61
2018-08-12T23:23:57.285Z,19.57
2018-08-12T23:26:26.939Z,19.51
2018-08-12T23:28:56.622Z,19.47
2018-08-12T23:31:26.471Z,19.42
2018-08-12T23:33:56.047Z,19.37
2018-08-12T23:36:26.271Z,19.35
2018-08-12T23:38:56.274Z,19.30
2018-08-12T23:41:26.085Z,19.30
2018-08-12T23:43:55.899Z,19.25
2018-08-12T23:46:25.599Z,19.16
2018-08-12T23:48:55.423Z,19.09
2018-08-12T23:51:25.123Z,19.06
2018-08-12T23:53:54.771Z,19.06
2018-08-12T23:56:24.656Z,19.02
2018-08-12T23:58:54.623Z,18.92
